Time;durP1;ratioP1;P1;durP2;ratioP2;P2;SDS_P1;SDS_P2;PMS_P1;PMS_P2;Temp;Humidity;BMP_temperature;BMP_pressure;BME280_temperature;BME280_humidity;BME280_pressure;Samples;Min_cycle;Max_cycle;Signal;HPM_P1;HPM_P2
2022/11/16 00:01:28;;;;;;;6.82;3.90;;;14.30;99.90;;;;;;5031016;28;20037;-91
2022/11/16 00:03:58;;;;;;;6.97;4.28;;;14.30;99.90;;;;;;5029395;28;20510;-90
2022/11/16 00:06:26;;;;;;;7.80;3.88;;;14.30;99.90;;;;;;5030477;28;20049;-90
2022/11/16 00:11:40;;;;;;;9.23;4.28;;;14.30;99.90;;;;;;5024636;28;20138;-91
2022/11/16 00:14:08;;;;;;;8.25;4.00;;;14.20;99.90;;;;;;5031408;28;20038;-90
2022/11/16 00:16:35;;;;;;;7.53;4.30;;;14.30;99.90;;;;;;5030520;28;20041;-91
2022/11/16 00:19:05;;;;;;;7.00;4.45;;;14.20;99.90;;;;;;5031339;28;20048;-90
2022/11/16 00:21:32;;;;;;;8.50;4.40;;;14.30;99.90;;;;;;5029228;28;20586;-90
2022/11/16 00:23:59;;;;;;;6.15;3.90;;;14.30;99.90;;;;;;5030292;28;20057;-91
2022/11/16 00:26:27;;;;;;;9.18;4.07;;;14.30;99.90;;;;;;5030459;28;20124;-88
2022/11/16 00:28:54;;;;;;;7.00;4.03;;;14.20;99.90;;;;;;5027648;28;20075;-88
2022/11/16 00:31:23;;;;;;;6.50;4.10;;;14.20;99.90;;;;;;5046199;28;20107;-88
2022/11/16 00:33:51;;;;;;;7.95;4.10;;;14.20;99.90;;;;;;5029670;28;20815;-91
2022/11/16 00:36:18;;;;;;;7.97;4.18;;;14.30;99.90;;;;;;5028823;28;20124;-91
2022/11/16 00:38:46;;;;;;;7.20;3.90;;;14.20;99.90;;;;;;5029158;28;20084;-90
2022/11/16 00:41:13;;;;;;;6.32;4.32;;;14.50;99.90;;;;;;5022746;28;20045;-91
2022/11/16 00:43:40;;;;;;;8.55;4.50;;;14.20;99.90;;;;;;5029988;28;20041;-88
2022/11/16 00:46:07;;;;;;;9.57;4.80;;;14.20;99.90;;;;;;5028328;28;20041;-88
2022/11/16 00:48:35;;;;;;;7.20;4.18;;;14.20;99.90;;;;;;5029980;28;20045;-87
2022/11/16 00:51:02;;;;;;;6.38;4.13;;;14.20;99.90;;;;;;5029328;28;20049;-89
2022/11/16 00:53:30;;;;;;;8.10;4.82;;;14.20;99.90;;;;;;5027844;28;20492;-88
2022/11/16 00:55:57;;;;;;;7.80;4.45;;;14.20;99.90;;;;;;5019731;28;20045;-87
2022/11/16 00:58:24;;;;;;;10.25;5.38;;;14.20;99.90;;;;;;5029139;28;20536;-88
2022/11/16 01:01:04;;;;;;;8.02;4.30;;;14.20;99.90;;;;;;5028511;28;20057;-88
2022/11/16 01:03:31;;;;;;;8.23;4.38;;;14.20;99.90;;;;;;5028296;28;20561;-91
2022/11/16 01:06:02;;;;;;;8.65;4.70;;;14.20;99.90;;;;;;5029657;28;20048;-91
2022/11/16 01:08:30;;;;;;;8.02;4.70;;;14.30;99.90;;;;;;5029188;28;20049;-88
2022/11/16 01:12:07;;;;;;;7.22;4.22;;;14.20;99.90;;;;;;5029098;28;20049;-89
2022/11/16 01:13:44;;;;;;;7.20;4.75;;;14.20;99.90;;;;;;5019655;28;20095;-88
2022/11/16 01:16:15;;;;;;;6.82;4.28;;;14.20;99.90;;;;;;5027894;28;20386;-88
2022/11/16 01:18:42;;;;;;;5.97;4.20;;;14.20;99.90;;;;;;5028366;28;20273;-88
2022/11/16 01:21:10;;;;;;;6.55;4.22;;;14.20;99.90;;;;;;5028471;28;20084;-88
2022/11/16 01:23:37;;;;;;;7.82;4.35;;;14.20;99.90;;;;;;5023696;28;20499;-89
2022/11/16 01:26:04;;;;;;;8.75;4.82;;;14.20;99.90;;;;;;5017456;28;20128;-88
2022/11/16 01:28:35;;;;;;;6.65;4.45;;;14.20;99.90;;;;;;5028099;28;20034;-88
2022/11/16 01:31:02;;;;;;;7.90;4.50;;;14.20;99.90;;;;;;5028420;28;20056;-88
2022/11/16 01:33:31;;;;;;;9.32;4.68;;;14.20;99.90;;;;;;5027888;28;20049;-88
2022/11/16 01:35:58;;;;;;;7.80;4.15;;;14.20;99.90;;;;;;5027567;28;20084;-88
2022/11/16 01:38:26;;;;;;;6.93;4.30;;;14.20;99.90;;;;;;5027797;28;20037;-89
2022/11/16 01:40:53;;;;;;;7.35;4.45;;;14.20;99.90;;;;;;5028405;28;20056;-89
2022/11/16 01:43:26;;;;;;;6.57;4.18;;;14.20;99.90;;;;;;5027567;28;20603;-89
2022/11/16 01:45:59;;;;;;;6.25;4.32;;;14.20;99.90;;;;;;5026802;28;20060;-89
2022/11/16 01:48:30;;;;;;;6.75;4.50;;;14.20;99.90;;;;;;5028260;28;20474;-89
2022/11/16 01:50:58;;;;;;;7.17;4.43;;;14.20;99.90;;;;;;5028282;28;20049;-90
2022/11/16 01:53:27;;;;;;;7.22;4.40;;;14.20;99.90;;;;;;5025602;28;20046;-89
2022/11/16 01:55:56;;;;;;;8.43;4.75;;;14.20;99.90;;;;;;5027215;28;20041;-89
2022/11/16 01:58:28;;;;;;;8.45;4.78;;;14.20;99.90;;;;;;5027604;28;20045;-89
2022/11/16 02:01:11;;;;;;;9.60;4.45;;;14.20;99.90;;;;;;5028055;28;20053;-88
2022/11/16 02:03:44;;;;;;;10.50;5.28;;;14.20;99.90;;;;;;5020579;28;20048;-89
2022/11/16 02:06:24;;;;;;;8.18;4.78;;;14.20;99.90;;;;;;5026451;28;20068;-88
2022/11/16 02:12:19;;;;;;;9.63;4.95;;;14.20;99.90;;;;;;5027989;28;20509;-88
2022/11/16 02:15:04;;;;;;;8.48;5.20;;;14.20;99.90;;;;;;5026973;28;20430;-88
2022/11/16 02:17:36;;;;;;;9.48;4.68;;;14.20;99.90;;;;;;5027570;28;20060;-89
2022/11/16 02:20:33;;;;;;;7.35;5.20;;;14.20;99.90;;;;;;5025392;28;20057;-88
2022/11/16 02:23:16;;;;;;;7.00;4.30;;;14.20;99.90;;;;;;5024866;28;20045;-88
2022/11/16 02:25:52;;;;;;;6.88;4.25;;;14.20;99.90;;;;;;5027146;28;20144;-89
2022/11/16 02:28:30;;;;;;;6.75;3.92;;;14.20;99.90;;;;;;5026438;28;20094;-89
2022/11/16 02:31:00;;;;;;;7.20;3.92;;;14.20;99.90;;;;;;5026878;28;20417;-88
2022/11/16 02:33:33;;;;;;;6.40;3.70;;;14.20;99.90;;;;;;5027213;28;20453;-88
2022/11/16 02:36:03;;;;;;;7.30;3.20;;;14.20;99.90;;;;;;5025227;28;20041;-89
2022/11/16 02:38:32;;;;;;;5.97;3.10;;;14.20;99.90;;;;;;5026525;28;20053;-89
2022/11/16 02:41:05;;;;;;;7.70;3.30;;;14.10;99.90;;;;;;5018532;28;20045;-89
2022/11/16 02:43:36;;;;;;;7.07;3.25;;;14.20;99.90;;;;;;5026963;28;20049;-89
2022/11/16 02:46:09;;;;;;;5.77;3.23;;;14.20;99.90;;;;;;5026967;28;20140;-90
2022/11/16 02:48:38;;;;;;;4.43;2.63;;;14.20;99.90;;;;;;5026742;28;20080;-88
2022/11/16 02:51:06;;;;;;;4.00;2.60;;;14.20;99.90;;;;;;5020366;28;20052;-89
2022/11/16 02:53:37;;;;;;;4.32;2.55;;;14.10;99.90;;;;;;5027656;28;20041;-89
2022/11/16 02:56:04;;;;;;;7.05;2.70;;;14.20;99.90;;;;;;5026757;28;20509;-88
2022/11/16 02:58:31;;;;;;;4.65;2.65;;;14.10;99.90;;;;;;5026517;28;20539;-89
2022/11/16 03:01:02;;;;;;;5.05;2.60;;;14.10;99.90;;;;;;5026384;28;20057;-88
2022/11/16 03:03:37;;;;;;;5.07;2.80;;;14.10;99.90;;;;;;5027121;28;20103;-88
2022/11/16 03:06:10;;;;;;;5.57;2.88;;;14.10;99.90;;;;;;5026576;28;20054;-89
2022/11/16 03:08:39;;;;;;;4.68;2.60;;;14.10;99.90;;;;;;5025794;28;20054;-88
2022/11/16 03:14:01;;;;;;;5.80;3.50;;;14.10;99.90;;;;;;5024458;28;20045;-89
2022/11/16 03:16:32;;;;;;;5.15;3.00;;;14.10;99.90;;;;;;5026944;28;20128;-88
2022/11/16 03:19:02;;;;;;;4.35;2.60;;;14.10;99.90;;;;;;5026964;28;20068;-89
2022/11/16 03:21:36;;;;;;;5.40;3.17;;;14.10;99.90;;;;;;5017864;28;20069;-89
2022/11/16 03:24:03;;;;;;;4.15;2.50;;;14.00;99.90;;;;;;5026605;28;20052;-90
2022/11/16 03:26:35;;;;;;;4.85;2.70;;;14.10;99.90;;;;;;5025232;28;20068;-91
2022/11/16 03:29:07;;;;;;;5.80;2.72;;;14.00;99.90;;;;;;5029825;28;20108;-90
2022/11/16 03:31:38;;;;;;;4.15;2.22;;;14.00;99.90;;;;;;5030858;28;20603;-91
2022/11/16 03:34:10;;;;;;;3.53;2.42;;;14.00;99.90;;;;;;5030776;28;20049;-91
2022/11/16 03:36:40;;;;;;;4.85;2.33;;;14.00;99.90;;;;;;5030414;28;20053;-91
2022/11/16 03:39:12;;;;;;;4.72;2.30;;;14.10;99.90;;;;;;5030547;28;20099;-91
2022/11/16 03:41:41;;;;;;;4.82;2.40;;;14.00;99.90;;;;;;5029700;28;20049;-91
2022/11/16 03:44:09;;;;;;;5.40;2.45;;;14.10;99.90;;;;;;5030294;28;20049;-90
2022/11/16 03:46:36;;;;;;;5.25;2.38;;;14.10;99.90;;;;;;5029890;28;20053;-91
2022/11/16 03:49:03;;;;;;;5.40;2.72;;;14.00;99.90;;;;;;5029143;28;20056;-90
2022/11/16 03:51:36;;;;;;;4.45;2.60;;;14.00;99.90;;;;;;5029672;28;20037;-91
2022/11/16 03:54:04;;;;;;;5.03;2.45;;;14.00;99.90;;;;;;5029892;28;20046;-90
2022/11/16 03:56:32;;;;;;;3.53;2.03;;;14.00;99.90;;;;;;5027698;28;20140;-90
2022/11/16 03:58:59;;;;;;;4.05;2.00;;;14.00;99.90;;;;;;5029550;28;20069;-91
2022/11/16 04:01:26;;;;;;;4.28;2.55;;;14.00;99.90;;;;;;5024284;28;20046;-90
2022/11/16 04:03:53;;;;;;;10.60;3.15;;;14.10;99.90;;;;;;5029578;28;20046;-90
2022/11/16 04:25:44;;;;;;;3.58;2.08;;;14.00;99.90;;;;;;5028124;28;20146;-90
2022/11/16 04:28:16;;;;;;;3.53;1.90;;;14.00;99.90;;;;;;5028900;28;20057;-90
2022/11/16 04:39:07;;;;;;;4.13;2.00;;;14.00;99.90;;;;;;5029278;28;20498;-90
2022/11/16 04:44:21;;;;;;;3.30;1.95;;;13.90;99.90;;;;;;5018799;28;20452;-90
2022/11/16 04:49:41;;;;;;;5.25;1.63;;;13.90;99.90;;;;;;4973622;28;20064;-90
2022/11/16 04:52:08;;;;;;;4.45;2.05;;;13.90;99.90;;;;;;5028839;28;20116;-90
2022/11/16 04:54:35;;;;;;;5.80;1.92;;;13.90;99.90;;;;;;5028646;28;20049;-90
2022/11/16 04:57:04;;;;;;;5.03;1.98;;;13.90;99.90;;;;;;5028726;28;20514;-91
2022/11/16 04:59:31;;;;;;;4.10;1.90;;;13.90;99.90;;;;;;5026722;28;20037;-91
2022/11/16 05:02:10;;;;;;;4.30;2.20;;;13.90;99.90;;;;;;5028691;28;20091;-90
2022/11/16 05:04:48;;;;;;;5.00;1.90;;;13.90;99.90;;;;;;5025407;28;20162;-90
2022/11/16 05:07:16;;;;;;;3.83;2.10;;;13.90;99.90;;;;;;5029356;28;20144;-87
2022/11/16 05:09:46;;;;;;;3.97;2.13;;;13.90;99.90;;;;;;5034210;28;20029;-95
2022/11/16 05:12:19;;;;;;;3.83;1.80;;;13.90;99.90;;;;;;5033399;28;20873;-87
2022/11/16 05:14:48;;;;;;;5.10;2.00;;;13.90;99.90;;;;;;5030801;28;20046;-92
2022/11/16 05:17:17;;;;;;;4.72;2.15;;;13.90;99.90;;;;;;5033761;28;20057;-93
2022/11/16 05:22:34;;;;;;;7.85;2.60;;;13.90;99.90;;;;;;5011668;28;20077;-95
2022/11/16 05:25:02;;;;;;;4.35;2.38;;;14.00;99.90;;;;;;5023017;28;20041;-96
2022/11/16 05:27:58;;;;;;;4.63;2.50;;;13.90;99.90;;;;;;5032326;28;20160;-96
2022/11/16 05:30:32;;;;;;;5.80;2.70;;;13.90;99.90;;;;;;5030330;28;20049;-93
2022/11/16 05:37:25;;;;;;;5.28;2.55;;;13.80;99.90;;;;;;5026180;28;20080;-95
2022/11/16 05:39:53;;;;;;;10.88;3.10;;;13.80;99.90;;;;;;5017256;28;20041;-91
2022/11/16 05:42:23;;;;;;;7.97;2.92;;;13.80;99.90;;;;;;5023398;28;20045;-92
2022/11/16 05:44:51;;;;;;;4.97;2.85;;;13.80;99.90;;;;;;5028076;28;20057;-88
2022/11/16 05:47:21;;;;;;;4.88;2.58;;;13.80;99.90;;;;;;5024486;28;20056;-85
2022/11/16 05:49:48;;;;;;;5.93;3.10;;;13.90;99.90;;;;;;5025224;28;20586;-87
2022/11/16 05:52:15;;;;;;;5.40;3.00;;;13.80;99.90;;;;;;5041570;22;20041;-80
2022/11/16 05:54:44;;;;;;;6.60;3.38;;;13.80;99.90;;;;;;5025867;28;20046;-79
2022/11/16 05:57:11;;;;;;;5.85;3.40;;;13.80;99.90;;;;;;5037341;28;20045;-79
2022/11/16 05:59:39;;;;;;;7.88;3.38;;;13.80;99.90;;;;;;5047567;28;20045;-79
2022/11/16 06:02:07;;;;;;;6.10;3.40;;;13.80;99.90;;;;;;5033774;28;20161;-79
2022/11/16 06:04:35;;;;;;;6.13;3.90;;;13.80;99.90;;;;;;5029047;28;20095;-81
2022/11/16 06:07:02;;;;;;;5.90;3.90;;;13.80;99.90;;;;;;5025439;28;20128;-84
2022/11/16 06:09:32;;;;;;;7.73;4.07;;;13.80;99.90;;;;;;5036459;28;20413;-81
2022/11/16 06:12:08;;;;;;;7.15;4.03;;;13.80;99.90;;;;;;5024253;28;20049;-81
2022/11/16 06:14:35;;;;;;;7.68;4.22;;;13.80;99.90;;;;;;5027144;28;20070;-81
2022/11/16 06:17:02;;;;;;;7.18;4.28;;;13.80;99.90;;;;;;5027106;28;20506;-81
2022/11/16 06:19:31;;;;;;;7.70;3.95;;;13.80;99.90;;;;;;5027683;28;20550;-81
2022/11/16 06:21:58;;;;;;;9.68;4.20;;;13.80;99.90;;;;;;5027399;28;20141;-81
2022/11/16 06:24:26;;;;;;;6.55;4.07;;;13.80;99.90;;;;;;5026621;28;20077;-81
2022/11/16 06:26:53;;;;;;;6.78;4.22;;;13.80;99.90;;;;;;5026125;28;20049;-81
2022/11/16 06:29:21;;;;;;;6.93;4.18;;;13.90;99.90;;;;;;5017926;28;20504;-81
2022/11/16 06:31:48;;;;;;;11.45;4.78;;;13.80;99.90;;;;;;5026715;28;20041;-82
2022/11/16 06:34:16;;;;;;;9.85;4.93;;;13.80;99.90;;;;;;5025881;28;20045;-82
2022/11/16 06:36:44;;;;;;;8.18;4.97;;;13.80;99.90;;;;;;5026066;28;20041;-82
2022/11/16 06:39:12;;;;;;;8.30;4.63;;;13.80;99.90;;;;;;5025196;28;20127;-82
2022/11/16 06:41:40;;;;;;;9.07;5.10;;;13.80;99.90;;;;;;5026194;28;20076;-82
2022/11/16 06:44:08;;;;;;;7.18;5.05;;;13.80;99.90;;;;;;5027621;28;20119;-82
2022/11/16 06:46:38;;;;;;;6.97;4.75;;;13.70;99.90;;;;;;5027318;28;20065;-82
2022/11/16 06:49:05;;;;;;;8.13;4.72;;;13.70;99.90;;;;;;5027670;28;20052;-82
2022/11/16 06:51:34;;;;;;;12.05;5.32;;;13.70;99.90;;;;;;5026670;28;20041;-82
2022/11/16 06:54:02;;;;;;;8.25;5.32;;;13.70;99.90;;;;;;5027100;28;20099;-82
2022/11/16 06:56:29;;;;;;;9.52;5.47;;;13.70;99.90;;;;;;5025346;28;20065;-82
2022/11/16 06:58:58;;;;;;;8.50;5.55;;;13.70;99.90;;;;;;5043920;28;20045;-82
2022/11/16 07:01:27;;;;;;;11.30;5.40;;;13.70;99.90;;;;;;5027533;28;20517;-82
2022/11/16 07:03:59;;;;;;;11.68;5.20;;;13.70;99.90;;;;;;5031702;28;20403;-82
2022/11/16 07:06:28;;;;;;;10.02;5.10;;;13.70;99.90;;;;;;5031111;28;20107;-82
2022/11/16 07:08:56;;;;;;;9.80;5.65;;;13.70;99.90;;;;;;5031452;28;20037;-82
2022/11/16 07:11:28;;;;;;;10.45;5.35;;;13.70;99.90;;;;;;5026449;28;20045;-82
2022/11/16 07:13:57;;;;;;;12.18;6.22;;;13.70;99.90;;;;;;5028809;28;20132;-82
2022/11/16 07:16:24;;;;;;;9.70;5.30;;;13.70;99.90;;;;;;5031023;28;20041;-82
2022/11/16 07:18:57;;;;;;;11.60;6.18;;;13.70;99.90;;;;;;5031232;28;20145;-82
2022/11/16 07:21:25;;;;;;;8.88;5.00;;;13.70;99.90;;;;;;5030763;28;20053;-82
2022/11/16 07:23:54;;;;;;;9.60;5.35;;;13.70;99.90;;;;;;5031216;28;20080;-82
2022/11/16 07:26:22;;;;;;;9.88;5.32;;;13.70;99.90;;;;;;5030315;28;20045;-82
2022/11/16 07:29:06;;;;;;;11.88;4.85;;;13.70;99.90;;;;;;5030125;28;20103;-82
2022/11/16 07:31:36;;;;;;;13.15;5.40;;;13.70;99.90;;;;;;5030819;28;20122;-82
2022/11/16 07:34:22;;;;;;;8.68;4.30;;;13.70;99.90;;;;;;5024532;28;20060;-82
2022/11/16 07:37:03;;;;;;;8.60;3.88;;;13.60;99.90;;;;;;5030811;28;20146;-82
2022/11/16 07:39:30;;;;;;;7.82;3.33;;;13.60;99.90;;;;;;5031024;28;20130;-82
2022/11/16 07:41:57;;;;;;;10.35;3.83;;;13.60;99.90;;;;;;5030370;28;20129;-82
2022/11/16 07:44:29;;;;;;;8.15;3.72;;;13.60;99.90;;;;;;5029267;28;20046;-82
2022/11/16 07:47:08;;;;;;;7.65;2.90;;;13.60;99.90;;;;;;5030827;28;20099;-82
2022/11/16 07:49:36;;;;;;;9.77;3.20;;;13.60;99.90;;;;;;5030693;28;20053;-82
2022/11/16 07:52:24;;;;;;;8.98;2.95;;;13.60;99.90;;;;;;5029571;28;20065;-82
2022/11/16 07:55:00;;;;;;;7.15;2.72;;;13.50;99.90;;;;;;5029958;28;20049;-82
2022/11/16 07:57:29;;;;;;;12.80;3.35;;;13.50;99.90;;;;;;5030767;28;20053;-82
2022/11/16 08:00:01;;;;;;;13.00;3.00;;;13.50;99.90;;;;;;5030431;28;20042;-82
2022/11/16 08:02:29;;;;;;;8.65;2.50;;;13.40;99.90;;;;;;5030365;28;20116;-82
2022/11/16 08:04:56;;;;;;;7.30;2.63;;;13.40;99.90;;;;;;5029753;28;20517;-81
2022/11/16 08:07:26;;;;;;;11.47;2.60;;;13.40;99.90;;;;;;5019873;28;20490;-82
2022/11/16 08:09:56;;;;;;;7.78;2.60;;;13.40;99.90;;;;;;5030369;28;20887;-82
2022/11/16 08:12:23;;;;;;;8.65;2.40;;;13.30;99.90;;;;;;5029870;28;20128;-82
2022/11/16 08:14:51;;;;;;;12.52;2.95;;;13.30;99.90;;;;;;5029033;28;20045;-82
2022/11/16 08:17:19;;;;;;;9.02;2.88;;;13.30;99.90;;;;;;5028682;28;20049;-82
2022/11/16 08:19:46;;;;;;;6.22;2.65;;;13.30;99.90;;;;;;5030033;28;20058;-82
2022/11/16 08:22:15;;;;;;;5.82;2.60;;;13.30;99.90;;;;;;5029142;28;20060;-82
2022/11/16 08:24:44;;;;;;;10.00;3.67;;;13.30;99.90;;;;;;5029354;28;20077;-81
2022/11/16 08:27:14;;;;;;;13.18;4.80;;;13.30;99.90;;;;;;5030184;28;20079;-82
2022/11/16 08:29:41;;;;;;;9.90;4.45;;;13.30;99.90;;;;;;5020995;28;20399;-81
2022/11/16 08:32:09;;;;;;;11.40;4.60;;;13.30;99.90;;;;;;5026771;28;20060;-82
2022/11/16 08:34:38;;;;;;;14.05;5.75;;;13.30;99.90;;;;;;5029287;28;20434;-82
2022/11/16 08:37:06;;;;;;;17.13;8.98;;;13.30;99.90;;;;;;5029377;28;20107;-82
2022/11/16 08:39:39;;;;;;;16.98;6.90;;;13.30;99.90;;;;;;5029949;28;20184;-82
2022/11/16 08:42:08;;;;;;;16.02;5.75;;;13.30;99.90;;;;;;5029310;28;20103;-82
2022/11/16 08:44:35;;;;;;;10.68;3.35;;;13.30;99.90;;;;;;5028366;28;20147;-81
2022/11/16 08:47:07;;;;;;;13.25;3.58;;;13.30;99.90;;;;;;5028125;28;20081;-82
2022/11/16 08:49:43;;;;;;;11.23;3.70;;;13.30;99.90;;;;;;5026928;28;20139;-82
2022/11/16 08:52:10;;;;;;;8.40;3.75;;;13.30;99.90;;;;;;5032765;28;20532;-82
2022/11/16 08:54:37;;;;;;;10.85;3.65;;;13.30;99.90;;;;;;5030275;28;20045;-81
2022/11/16 08:57:05;;;;;;;10.77;3.20;;;13.30;99.90;;;;;;5028968;28;20049;-82
2022/11/16 08:59:35;;;;;;;10.35;4.13;;;13.30;99.90;;;;;;5028220;28;20120;-82
2022/11/16 09:02:09;;;;;;;13.00;3.47;;;13.30;99.90;;;;;;5026930;28;20056;-82
2022/11/16 09:04:36;;;;;;;6.97;2.85;;;13.30;99.90;;;;;;5025977;28;20099;-82
2022/11/16 09:07:04;;;;;;;8.77;3.25;;;13.30;99.90;;;;;;5028232;28;20149;-82
2022/11/16 09:09:31;;;;;;;11.57;3.45;;;13.40;99.90;;;;;;5030946;28;20121;-82
2022/11/16 09:11:58;;;;;;;13.38;3.17;;;13.40;99.90;;;;;;5028914;28;20506;-82
2022/11/16 09:14:27;;;;;;;10.10;3.10;;;13.40;99.90;;;;;;5024920;28;20044;-81
2022/11/16 09:16:54;;;;;;;13.25;3.25;;;13.40;99.90;;;;;;5029620;28;20053;-82
2022/11/16 09:19:21;;;;;;;11.25;3.20;;;13.40;99.90;;;;;;5029485;28;20119;-82
2022/11/16 09:21:49;;;;;;;15.30;3.63;;;13.40;99.90;;;;;;5023069;28;20055;-82
2022/11/16 09:24:17;;;;;;;9.38;3.15;;;13.40;99.90;;;;;;5028210;28;20050;-82
2022/11/16 09:26:44;;;;;;;11.48;3.00;;;13.50;99.90;;;;;;5028900;28;20053;-82
2022/11/16 09:29:12;;;;;;;9.25;2.85;;;13.50;99.90;;;;;;5027895;28;20079;-82
2022/11/16 09:31:39;;;;;;;8.77;2.72;;;13.50;99.90;;;;;;5027854;28;20198;-82
2022/11/16 09:34:07;;;;;;;12.93;3.03;;;13.50;99.90;;;;;;5027653;28;20051;-82
2022/11/16 09:36:34;;;;;;;11.30;2.60;;;13.50;99.90;;;;;;5026989;28;20037;-82
2022/11/16 09:39:02;;;;;;;10.63;2.30;;;13.60;99.90;;;;;;5028806;28;20091;-82
2022/11/16 09:41:47;;;;;;;10.60;2.28;;;13.50;99.90;;;;;;5026168;28;20041;-82
2022/11/16 09:44:27;;;;;;;9.65;2.35;;;13.50;99.90;;;;;;5028237;28;20042;-82
2022/11/16 09:46:55;;;;;;;10.48;2.15;;;13.70;99.90;;;;;;5029941;28;20060;-82
2022/11/16 09:49:25;;;;;;;8.57;2.35;;;13.60;99.90;;;;;;5029850;28;20072;-82
2022/11/16 09:51:56;;;;;;;8.18;1.90;;;13.50;99.90;;;;;;5027648;28;20089;-81
2022/11/16 09:54:24;;;;;;;10.35;2.17;;;13.50;99.90;;;;;;5029481;28;20041;-81
2022/11/16 09:56:57;;;;;;;9.95;2.67;;;13.50;99.90;;;;;;5029325;28;20045;-81
2022/11/16 09:59:26;;;;;;;13.75;3.00;;;13.50;99.90;;;;;;5029875;28;20104;-83
2022/11/16 10:01:56;;;;;;;8.73;2.17;;;13.50;99.90;;;;;;5029653;28;20045;-81
2022/11/16 10:04:26;;;;;;;11.70;2.45;;;13.70;99.90;;;;;;5026869;28;20077;-83
2022/11/16 10:06:57;;;;;;;9.33;2.20;;;13.50;99.90;;;;;;5028377;28;20114;-81
2022/11/16 10:09:24;;;;;;;8.25;2.40;;;13.50;99.90;;;;;;5021990;28;20060;-82
2022/11/16 10:12:09;;;;;;;12.63;2.70;;;13.50;99.90;;;;;;5029474;28;20045;-83
2022/11/16 10:15:03;;;;;;;11.50;2.50;;;13.50;99.90;;;;;;5028043;28;20139;-84
2022/11/16 10:17:40;;;;;;;13.18;2.58;;;13.50;99.90;;;;;;5022916;28;20054;-84
2022/11/16 10:20:25;;;;;;;13.35;2.58;;;13.50;99.90;;;;;;5028409;28;20037;-84
2022/11/16 10:22:58;;;;;;;14.52;2.88;;;13.60;99.90;;;;;;5028396;28;20096;-84
2022/11/16 10:25:29;;;;;;;11.43;2.75;;;13.60;99.90;;;;;;5026403;28;20050;-83
2022/11/16 10:28:24;;;;;;;8.75;2.10;;;13.60;99.90;;;;;;5029368;28;20055;-86
2022/11/16 10:31:00;;;;;;;11.82;2.78;;;13.60;99.90;;;;;;5025103;28;20494;-87
2022/11/16 10:33:33;;;;;;;6.57;1.98;;;13.60;99.90;;;;;;5026713;28;20149;-87
2022/11/16 10:36:04;;;;;;;9.32;2.30;;;13.70;99.90;;;;;;5026734;28;20052;-87
2022/11/16 10:38:31;;;;;;;11.48;2.30;;;13.70;99.90;;;;;;5026467;28;20045;-86
2022/11/16 10:41:03;;;;;;;10.25;2.47;;;13.60;99.90;;;;;;5025723;28;20045;-87
2022/11/16 10:43:32;;;;;;;8.55;2.00;;;13.60;99.90;;;;;;5028060;28;20515;-86
2022/11/16 10:46:02;;;;;;;8.55;2.22;;;13.70;99.90;;;;;;5027140;28;20107;-87
2022/11/16 10:48:35;;;;;;;8.48;2.38;;;13.70;99.90;;;;;;5027567;28;20124;-87
2022/11/16 10:51:03;;;;;;;11.07;2.20;;;13.70;99.90;;;;;;5028629;28;20500;-86
2022/11/16 10:53:33;;;;;;;12.43;2.47;;;13.80;99.90;;;;;;5025201;28;20049;-87
2022/11/16 10:56:16;;;;;;;8.23;2.20;;;13.80;99.90;;;;;;5027075;28;20041;-87
2022/11/16 10:58:53;;;;;;;9.52;2.50;;;13.80;99.90;;;;;;5024090;28;20133;-87
2022/11/16 11:01:35;;;;;;;7.15;1.83;;;13.80;99.90;;;;;;5028115;28;20087;-87
2022/11/16 11:04:19;;;;;;;7.75;1.92;;;13.80;99.90;;;;;;5026848;28;20041;-86
2022/11/16 11:06:48;;;;;;;7.85;1.88;;;13.80;99.90;;;;;;5027977;28;20195;-86
2022/11/16 11:09:20;;;;;;;12.48;2.35;;;13.80;99.90;;;;;;5023115;28;20049;-86
2022/11/16 11:15:05;;;;;;;7.57;1.90;;;13.80;99.90;;;;;;5027687;28;20095;-86
2022/11/16 11:17:34;;;;;;;9.07;2.35;;;13.80;99.90;;;;;;5028454;28;20049;-87
2022/11/16 11:20:02;;;;;;;9.20;1.52;;;13.80;99.90;;;;;;5019889;28;20044;-86
2022/11/16 11:22:30;;;;;;;8.82;1.95;;;13.70;99.90;;;;;;5037193;28;20052;-87
2022/11/16 11:24:58;;;;;;;10.10;1.85;;;13.70;99.90;;;;;;5024875;28;20049;-84
2022/11/16 11:27:29;;;;;;;10.35;1.80;;;13.70;99.90;;;;;;5029099;28;20048;-87
2022/11/16 11:29:59;;;;;;;10.65;2.10;;;13.70;99.90;;;;;;5026899;28;20042;-87
2022/11/16 11:32:30;;;;;;;8.65;1.60;;;13.80;99.90;;;;;;5027340;28;20176;-86
2022/11/16 11:34:58;;;;;;;5.95;1.85;;;13.80;99.90;;;;;;5026868;28;20395;-86
2022/11/16 11:37:27;;;;;;;10.65;1.90;;;13.80;99.90;;;;;;5025173;28;20052;-86
2022/11/16 11:40:06;;;;;;;9.55;1.98;;;13.80;99.90;;;;;;5043905;28;20077;-85
2022/11/16 11:42:33;;;;;;;8.77;1.80;;;13.80;99.90;;;;;;5023303;28;20052;-86
2022/11/16 11:45:04;;;;;;;14.13;1.80;;;13.80;99.90;;;;;;5027862;28;20547;-86
2022/11/16 11:47:39;;;;;;;6.43;1.77;;;13.80;99.90;;;;;;5024264;28;20505;-85
2022/11/16 11:50:15;;;;;;;15.77;2.42;;;13.80;99.90;;;;;;5028983;28;20052;-86
2022/11/16 12:25:32;;;;;;;7.57;1.70;;;13.80;99.90;;;;;;5404319;22;20410;-90
2022/11/16 12:28:29;;;;;;;9.38;1.98;;;13.80;99.90;;;;;;4999055;28;20050;-93
2022/11/16 13:17:53;;;;;;;9.00;1.30;;;13.90;99.90;;;;;;4963237;28;20077;-94
2022/11/16 13:20:35;;;;;;;13.02;2.38;;;13.90;99.90;;;;;;4965245;28;20114;-83
2022/11/16 13:23:06;;;;;;;10.13;1.92;;;13.90;99.90;;;;;;4963943;28;20101;-86
2022/11/16 13:25:38;;;;;;;8.98;1.75;;;14.00;99.90;;;;;;4958631;28;21649;-86
2022/11/16 13:28:12;;;;;;;6.70;1.65;;;13.90;99.90;;;;;;4967967;28;20522;-85
2022/11/16 13:30:46;;;;;;;5.32;1.60;;;13.90;99.90;;;;;;4971187;28;20042;-86
2022/11/16 13:33:30;;;;;;;7.70;1.90;;;13.90;99.90;;;;;;4964546;28;20048;-86
2022/11/16 13:35:57;;;;;;;9.15;1.67;;;13.90;99.90;;;;;;4956190;28;20141;-86
2022/11/16 13:38:49;;;;;;;8.63;1.95;;;13.90;99.90;;;;;;4963652;28;20042;-86
2022/11/16 13:41:31;;;;;;;7.25;1.70;;;13.90;99.90;;;;;;4966501;28;20064;-86
2022/11/16 13:43:58;;;;;;;7.53;2.10;;;13.90;99.90;;;;;;4974933;28;20137;-86
2022/11/16 13:46:37;;;;;;;5.97;1.40;;;13.90;99.90;;;;;;4959923;28;20415;-86
2022/11/16 13:49:06;;;;;;;11.38;1.45;;;13.90;99.90;;;;;;4976188;28;20061;-86
2022/11/16 13:51:33;;;;;;;6.25;1.40;;;13.90;99.90;;;;;;4964373;28;20118;-86
2022/11/16 13:54:00;;;;;;;5.75;1.50;;;14.00;99.90;;;;;;4969590;28;20050;-86
2022/11/16 13:56:27;;;;;;;7.07;1.73;;;14.00;99.90;;;;;;4965553;28;20427;-87
2022/11/16 13:59:01;;;;;;;7.50;1.42;;;14.00;99.90;;;;;;4959238;28;20047;-86
2022/11/16 14:01:56;;;;;;;10.15;1.50;;;14.00;99.90;;;;;;4966178;28;20044;-85
2022/11/16 14:04:41;;;;;;;8.55;1.30;;;14.00;99.90;;;;;;4971260;28;20500;-87
2022/11/16 14:07:36;;;;;;;4.72;1.35;;;14.00;99.90;;;;;;4973605;28;20038;-85
2022/11/16 14:10:10;;;;;;;9.45;1.55;;;14.00;99.90;;;;;;4968515;28;20075;-88
2022/11/16 14:12:56;;;;;;;6.45;1.40;;;14.00;99.90;;;;;;4964735;28;20047;-88
2022/11/16 14:15:28;;;;;;;6.55;1.42;;;14.00;99.90;;;;;;4970352;28;20050;-88
2022/11/16 14:17:58;;;;;;;5.10;1.30;;;14.00;99.90;;;;;;4968200;28;20046;-88
2022/11/16 14:20:40;;;;;;;5.10;1.50;;;14.00;99.90;;;;;;4983438;28;20498;-88
2022/11/16 14:23:16;;;;;;;8.00;1.48;;;14.00;99.90;;;;;;4966545;28;20053;-88
2022/11/16 14:25:49;;;;;;;8.88;2.33;;;14.00;99.90;;;;;;4959110;28;20511;-93
2022/11/16 14:28:48;;;;;;;9.75;1.67;;;14.00;99.90;;;;;;4959243;28;20176;-93
2022/11/16 14:31:23;;;;;;;6.82;1.65;;;14.00;99.90;;;;;;4971298;28;20074;-94
2022/11/16 14:37:30;;;;;;;5.25;1.50;;;14.00;99.90;;;;;;4953589;28;20039;-93
2022/11/16 14:40:35;;;;;;;5.50;1.55;;;14.00;99.90;;;;;;4957730;28;20046;-94
2022/11/16 14:43:18;;;;;;;8.07;1.40;;;14.00;99.90;;;;;;4970030;28;20165;-93
2022/11/16 14:45:52;;;;;;;6.80;1.40;;;14.00;99.90;;;;;;4972377;28;20120;-92
2022/11/16 14:48:21;;;;;;;8.93;1.50;;;14.00;99.90;;;;;;4963220;28;20150;-93
2022/11/16 14:51:00;;;;;;;9.30;1.50;;;14.00;99.90;;;;;;4977515;28;20045;-93
2022/11/16 14:53:29;;;;;;;5.78;1.48;;;14.00;99.90;;;;;;4966569;28;20050;-92
2022/11/16 14:56:10;;;;;;;7.15;1.60;;;14.00;99.90;;;;;;4968135;28;20059;-94
2022/11/16 14:58:38;;;;;;;6.90;1.55;;;14.00;99.90;;;;;;4967776;28;20138;-92
2022/11/16 15:01:08;;;;;;;7.95;1.60;;;13.90;99.90;;;;;;4969859;28;20082;-92
2022/11/16 15:03:39;;;;;;;5.07;1.40;;;13.90;99.90;;;;;;4976094;28;20047;-94
2022/11/16 15:06:08;;;;;;;6.55;1.48;;;13.90;99.90;;;;;;4976545;28;20046;-93
2022/11/16 15:08:52;;;;;;;6.70;1.50;;;13.90;99.90;;;;;;4961793;28;20130;-94
2022/11/16 15:15:36;;;;;;;13.75;1.30;;;13.90;99.90;;;;;;4962534;28;20494;-93
2022/11/16 15:18:08;;;;;;;9.70;1.48;;;13.80;99.90;;;;;;4965396;28;20038;-93
2022/11/16 15:20:51;;;;;;;9.35;1.50;;;13.90;99.90;;;;;;4968888;28;20141;-94
2022/11/16 15:23:20;;;;;;;6.70;1.50;;;13.80;99.90;;;;;;4974812;28;20280;-93
2022/11/16 15:25:54;;;;;;;7.70;1.60;;;13.80;99.90;;;;;;4975527;28;20470;-92
2022/11/16 15:28:29;;;;;;;9.00;1.48;;;13.80;99.90;;;;;;4968747;28;20057;-94